createdAt,value
2023-05-20T00:02:30.658Z,53.61
2023-05-20T00:05:00.794Z,53.10
2023-05-20T00:07:30.966Z,53.62
2023-05-20T00:10:01.103Z,53.43
2023-05-20T00:12:31.241Z,53.36
2023-05-20T00:15:01.436Z,53.38
2023-05-20T00:17:34.120Z,54.12
2023-05-20T00:20:05.923Z,53.91
2023-05-20T00:22:36.203Z,54.11
2023-05-20T00:25:06.519Z,53.97
2023-05-20T00:27:36.640Z,54.53
2023-05-20T00:30:07.074Z,54.54
2023-05-20T00:32:39.982Z,54.46
2023-05-20T00:35:11.855Z,54.50
2023-05-20T00:37:41.746Z,54.85
2023-05-20T00:40:14.951Z,54.86
2023-05-20T00:42:45.590Z,54.67
2023-05-20T00:45:15.805Z,55.00
2023-05-20T00:47:48.972Z,55.10
2023-05-20T00:50:21.110Z,55.18
2023-05-20T00:52:51.957Z,55.26
2023-05-20T00:55:22.285Z,55.58
2023-05-20T00:57:53.134Z,55.67
2023-05-20T01:00:23.201Z,55.68
2023-05-20T01:02:56.260Z,55.95
2023-05-20T01:05:26.270Z,56.06
2023-05-20T01:07:56.909Z,56.23
2023-05-20T01:10:32.182Z,56.33
2023-05-20T01:13:07.747Z,56.98
2023-05-20T01:15:38.829Z,56.32
2023-05-20T01:18:13.714Z,56.99
2023-05-20T01:20:46.203Z,56.39
2023-05-20T01:23:18.779Z,57.02
2023-05-20T01:25:48.889Z,56.86
2023-05-20T01:28:19.400Z,56.96
2023-05-20T01:30:55.453Z,57.71
2023-05-20T01:33:28.905Z,58.14
2023-05-20T01:35:59.657Z,57.74
2023-05-20T01:38:33.187Z,57.85
2023-05-20T01:41:05.982Z,57.38
2023-05-20T01:43:38.717Z,57.39
2023-05-20T01:46:09.850Z,57.56
2023-05-20T01:48:39.849Z,57.54
2023-05-20T01:51:09.918Z,57.96
2023-05-20T01:53:42.470Z,58.18
2023-05-20T01:56:12.416Z,58.16
2023-05-20T01:58:42.398Z,58.57
2023-05-20T02:01:12.457Z,58.61
2023-05-20T02:03:42.392Z,58.59
2023-05-20T02:06:12.495Z,58.95
2023-05-20T02:08:45.187Z,59.86
2023-05-20T02:11:15.102Z,59.61
2023-05-20T02:13:45.099Z,59.63
2023-05-20T02:16:15.149Z,59.51
2023-05-20T02:18:45.702Z,59.58
2023-05-20T02:21:15.712Z,59.77
2023-05-20T02:23:48.328Z,59.76
2023-05-20T02:26:18.545Z,59.90
2023-05-20T02:28:51.086Z,59.94
2023-05-20T02:31:21.668Z,60.19
2023-05-20T02:33:51.784Z,60.15
2023-05-20T02:36:24.651Z,60.47
2023-05-20T02:38:57.493Z,60.56
2023-05-20T02:41:27.527Z,60.36
2023-05-20T02:43:57.637Z,60.58
2023-05-20T02:46:27.560Z,60.59
2023-05-20T02:48:57.567Z,61.00
2023-05-20T02:51:28.707Z,61.46
2023-05-20T02:54:01.417Z,61.56
2023-05-20T02:56:32.827Z,61.39
2023-05-20T02:59:03.801Z,61.53
2023-05-20T03:01:34.075Z,61.23
2023-05-20T03:04:04.939Z,61.28
2023-05-20T03:06:34.996Z,61.26
2023-05-20T03:09:07.593Z,61.80
2023-05-20T03:11:37.635Z,62.09
2023-05-20T03:14:07.546Z,62.47
2023-05-20T03:16:37.520Z,62.68
2023-05-20T03:19:07.720Z,62.79
2023-05-20T03:21:38.180Z,62.90
2023-05-20T03:24:10.982Z,63.15
2023-05-20T03:26:43.429Z,63.24
2023-05-20T03:29:13.775Z,63.34
2023-05-20T03:31:44.003Z,63.52
2023-05-20T03:34:14.043Z,63.55
2023-05-20T03:36:44.140Z,63.54
2023-05-20T03:39:16.828Z,63.87
2023-05-20T03:41:47.071Z,63.74
2023-05-20T03:44:17.604Z,63.51
2023-05-20T03:46:47.574Z,64.20
2023-05-20T03:49:17.588Z,63.79
2023-05-20T03:51:48.638Z,64.63
2023-05-20T03:54:21.341Z,64.70
2023-05-20T03:56:52.188Z,65.44
2023-05-20T03:59:22.590Z,64.73
2023-05-20T04:01:52.568Z,64.99
2023-05-20T04:04:22.894Z,65.08
2023-05-20T04:06:53.079Z,65.01
2023-05-20T04:09:25.948Z,66.51
2023-05-20T04:11:55.908Z,65.17
2023-05-20T04:14:26.091Z,65.84
2023-05-20T04:16:57.605Z,65.70
2023-05-20T04:19:28.690Z,65.91
2023-05-20T04:21:59.311Z,66.56
2023-05-20T04:24:32.088Z,66.61
2023-05-20T04:27:02.796Z,66.72
2023-05-20T04:29:34.575Z,66.72
2023-05-20T04:32:04.901Z,66.80
2023-05-20T04:34:35.363Z,66.47
2023-05-20T04:37:08.121Z,66.72
2023-05-20T04:39:41.279Z,67.19
2023-05-20T04:42:11.539Z,67.01
2023-05-20T04:44:42.428Z,67.61
2023-05-20T04:47:12.497Z,67.51
2023-05-20T04:49:42.574Z,67.92
2023-05-20T04:52:12.550Z,67.51
2023-05-20T04:54:45.323Z,67.32
2023-05-20T04:57:15.256Z,67.27
2023-05-20T04:59:45.897Z,67.20
2023-05-20T05:02:16.234Z,67.11
2023-05-20T05:04:46.311Z,67.13
2023-05-20T05:07:16.249Z,67.04
2023-05-20T05:09:48.989Z,67.17
2023-05-20T05:12:18.906Z,66.99
2023-05-20T05:14:48.937Z,66.83
2023-05-20T05:17:18.904Z,67.04
2023-05-20T05:19:49.108Z,67.18
2023-05-20T05:22:19.104Z,67.36
2023-05-20T05:24:51.691Z,67.98
2023-05-20T05:27:23.178Z,67.16
2023-05-20T05:29:53.459Z,67.77
2023-05-20T05:32:23.525Z,67.55
2023-05-20T05:34:53.536Z,68.01
2023-05-20T05:37:23.771Z,67.76
2023-05-20T05:39:56.414Z,67.73
2023-05-20T05:42:26.355Z,68.12
2023-05-20T05:44:56.629Z,67.59
2023-05-20T05:47:30.034Z,67.86
2023-05-20T05:50:00.298Z,67.71
2023-05-20T05:52:30.638Z,67.36
2023-05-20T05:55:03.183Z,67.91
2023-05-20T05:57:33.195Z,67.93
2023-05-20T06:00:04.966Z,67.39
2023-05-20T06:02:36.502Z,68.49
2023-05-20T06:05:06.940Z,67.43
2023-05-20T06:07:36.981Z,67.01
2023-05-20T06:10:10.915Z,67.26
2023-05-20T06:12:40.965Z,67.12
2023-05-20T06:15:12.446Z,67.09
2023-05-20T06:17:42.610Z,67.14
2023-05-20T06:20:13.941Z,67.29
2023-05-20T06:22:44.055Z,66.69
2023-05-20T06:25:17.527Z,66.73
2023-05-20T06:27:47.453Z,65.84
2023-05-20T06:30:18.068Z,65.16
2023-05-20T06:32:49.236Z,64.66
2023-05-20T06:35:19.676Z,64.04
2023-05-20T06:37:49.543Z,63.50
2023-05-20T06:40:22.343Z,62.56
2023-05-20T06:42:52.282Z,62.12
2023-05-20T06:45:22.208Z,62.19
2023-05-20T06:47:54.539Z,61.65
2023-05-20T06:50:25.269Z,61.31
2023-05-20T06:52:55.295Z,61.23
2023-05-20T06:55:27.988Z,60.35
2023-05-20T06:57:58.415Z,60.22
2023-05-20T07:00:28.358Z,59.34
2023-05-20T07:02:58.372Z,59.69
2023-05-20T07:05:29.237Z,59.25
2023-05-20T07:07:59.212Z,57.77
2023-05-20T07:10:32.912Z,58.29
2023-05-20T07:13:03.368Z,57.93
2023-05-20T07:15:33.636Z,57.45
2023-05-20T07:18:04.221Z,57.87
2023-05-20T07:20:34.212Z,57.70
2023-05-20T07:23:04.454Z,58.17
2023-05-20T07:25:37.246Z,58.26
2023-05-20T07:28:07.694Z,58.42
2023-05-20T07:30:37.926Z,58.62
2023-05-20T07:33:07.937Z,58.38
2023-05-20T07:35:37.982Z,58.41
2023-05-20T07:38:08.144Z,58.70
2023-05-20T07:40:40.938Z,58.39
2023-05-20T07:43:11.201Z,58.26
2023-05-20T07:45:44.671Z,57.93
2023-05-20T07:48:14.667Z,57.66
2023-05-20T07:50:44.771Z,58.12
2023-05-20T07:53:14.756Z,57.71
2023-05-20T07:55:48.947Z,57.73
2023-05-20T07:58:19.000Z,57.77
2023-05-20T08:00:49.047Z,56.92
2023-05-20T08:03:19.924Z,56.77
2023-05-20T08:05:49.922Z,57.04
2023-05-20T08:08:19.911Z,57.02
2023-05-20T08:10:54.859Z,56.80
2023-05-20T08:13:24.964Z,57.02
2023-05-20T08:15:56.670Z,57.12
2023-05-20T08:18:27.793Z,57.18
2023-05-20T08:20:58.005Z,56.87
2023-05-20T08:23:28.179Z,56.25
2023-05-20T08:26:02.462Z,55.94
2023-05-20T08:28:32.476Z,56.14
2023-05-20T08:31:04.995Z,56.02
2023-05-20T08:33:35.117Z,56.84
2023-05-20T08:36:05.281Z,56.57
2023-05-20T08:38:38.186Z,56.46
2023-05-20T08:41:10.853Z,56.40
2023-05-20T08:43:40.926Z,55.90
2023-05-20T08:46:11.864Z,56.27
2023-05-20T08:48:43.387Z,55.81
2023-05-20T08:51:14.636Z,55.42
2023-05-20T08:53:44.942Z,55.17
2023-05-20T08:56:19.135Z,54.87
2023-05-20T08:58:49.790Z,55.14
2023-05-20T09:01:19.841Z,55.03
2023-05-20T09:03:49.839Z,55.30
2023-05-20T09:06:21.304Z,54.93
2023-05-20T09:08:52.999Z,54.87
2023-05-20T09:11:25.627Z,53.71
2023-05-20T09:13:56.579Z,54.44
2023-05-20T09:16:28.806Z,54.10
2023-05-20T09:18:59.669Z,54.50
2023-05-20T09:21:30.425Z,54.74
2023-05-20T09:24:00.490Z,54.63
2023-05-20T09:26:33.393Z,54.31
2023-05-20T09:29:03.577Z,55.00
2023-05-20T09:31:35.951Z,54.40
2023-05-20T09:34:06.353Z,54.35
2023-05-20T09:36:38.626Z,54.13
2023-05-20T09:39:12.897Z,53.76
2023-05-20T09:41:53.462Z,53.90
2023-05-20T09:44:25.175Z,53.43
2023-05-20T09:46:56.366Z,53.43
2023-05-20T09:49:28.203Z,53.49
2023-05-20T09:52:00.180Z,52.56
2023-05-20T09:54:31.627Z,52.80
2023-05-20T09:57:06.552Z,52.82
2023-05-20T09:59:38.665Z,52.72
2023-05-20T10:02:10.008Z,52.58
2023-05-20T10:04:46.073Z,52.35
2023-05-20T10:07:42.572Z,52.49
2023-05-20T10:10:24.391Z,52.51
2023-05-20T10:13:09.284Z,52.44
2023-05-20T10:15:51.903Z,52.62
2023-05-20T10:18:36.484Z,52.76
2023-05-20T10:21:09.736Z,52.85
2023-05-20T10:23:40.027Z,52.75
2023-05-20T10:26:10.426Z,52.34
2023-05-20T10:28:44.638Z,52.28
2023-05-20T10:31:25.954Z,52.44
2023-05-20T10:33:57.118Z,53.17
2023-05-20T10:36:30.840Z,52.60
2023-05-20T10:39:02.495Z,52.92
2023-05-20T10:41:35.140Z,53.22
2023-05-20T10:44:09.613Z,53.11
2023-05-20T10:46:57.194Z,53.02
2023-05-20T10:49:37.869Z,52.40
2023-05-20T10:52:10.275Z,52.95
2023-05-20T10:54:46.018Z,53.46
2023-05-20T10:57:16.212Z,52.60
2023-05-20T10:59:48.796Z,52.43
2023-05-20T11:02:19.990Z,53.31
2023-05-20T11:04:50.121Z,53.03
2023-05-20T11:07:30.741Z,52.92
2023-05-20T11:10:01.171Z,53.08
2023-05-20T11:12:31.525Z,53.62
2023-05-20T11:15:07.137Z,52.94
2023-05-20T11:17:37.167Z,53.02
2023-05-20T11:20:08.140Z,53.33
2023-05-20T11:22:38.094Z,53.63
2023-05-20T11:25:09.283Z,53.15
2023-05-20T11:27:42.395Z,53.09
2023-05-20T11:30:17.031Z,52.91
2023-05-20T11:32:47.483Z,53.31
2023-05-20T11:35:26.182Z,53.42
2023-05-20T11:38:00.549Z,53.38
2023-05-20T11:40:38.970Z,53.13
2023-05-20T11:43:17.764Z,52.68
2023-05-20T11:45:55.503Z,53.04
2023-05-20T11:48:25.561Z,53.13
2023-05-20T11:50:57.770Z,53.35
2023-05-20T11:53:28.814Z,53.05
2023-05-20T11:56:01.483Z,52.85
2023-05-20T11:58:33.968Z,52.90
2023-05-20T12:01:21.068Z,52.82
2023-05-20T12:03:52.465Z,52.46
2023-05-20T12:06:23.182Z,52.25
2023-05-20T12:08:53.203Z,52.40
2023-05-20T12:11:23.385Z,52.93
2023-05-20T12:13:53.562Z,52.20
2023-05-20T12:16:29.610Z,52.18
2023-05-20T12:18:59.742Z,52.40
2023-05-20T12:21:30.034Z,51.95
2023-05-20T12:24:00.281Z,51.36
2023-05-20T12:26:32.509Z,50.61
2023-05-20T12:29:04.005Z,50.38
2023-05-20T12:31:36.689Z,50.65
2023-05-20T12:34:14.299Z,50.54
2023-05-20T12:36:44.613Z,50.79
2023-05-20T12:39:15.398Z,50.59
2023-05-20T12:41:45.379Z,50.49
2023-05-20T12:44:19.023Z,50.26
2023-05-20T12:46:51.772Z,50.82
2023-05-20T12:49:21.789Z,50.97
2023-05-20T12:51:51.704Z,50.31
2023-05-20T12:54:21.666Z,50.21
2023-05-20T12:56:51.694Z,49.81
2023-05-20T12:59:21.633Z,49.46
2023-05-20T13:01:54.273Z,49.09
2023-05-20T13:04:24.959Z,49.27
2023-05-20T13:06:58.153Z,48.84
2023-05-20T13:09:28.154Z,48.47
2023-05-20T13:11:58.289Z,48.96
2023-05-20T13:14:28.170Z,48.18
2023-05-20T13:17:03.588Z,46.79
2023-05-20T13:19:34.049Z,47.56
2023-05-20T13:22:04.084Z,47.36
2023-05-20T13:24:34.019Z,47.68
2023-05-20T13:27:04.381Z,46.93
2023-05-20T13:29:34.556Z,46.53
2023-05-20T13:32:07.568Z,47.02
2023-05-20T13:34:37.889Z,47.25
2023-05-20T13:37:08.674Z,46.69
2023-05-20T13:39:38.737Z,46.90
2023-05-20T13:42:09.289Z,46.49
2023-05-20T13:44:39.269Z,46.52
2023-05-20T13:47:12.027Z,46.50
2023-05-20T13:49:44.360Z,47.17
2023-05-20T13:52:14.329Z,46.51
2023-05-20T13:54:47.140Z,46.38
2023-05-20T13:57:17.098Z,46.55
2023-05-20T13:59:47.059Z,47.06
2023-05-20T14:02:20.187Z,46.36
2023-05-20T14:04:50.197Z,46.36
2023-05-20T14:07:20.067Z,46.46
2023-05-20T14:09:50.052Z,46.59
2023-05-20T14:12:20.076Z,45.86
2023-05-20T14:14:52.250Z,46.49
2023-05-20T14:17:24.857Z,46.67
2023-05-20T14:19:54.772Z,46.09
2023-05-20T14:22:24.768Z,46.16
2023-05-20T14:24:54.704Z,46.73
2023-05-20T14:27:24.699Z,46.24
2023-05-20T14:29:54.748Z,46.10
2023-05-20T14:32:27.519Z,45.78
2023-05-20T14:34:57.521Z,45.92
2023-05-20T14:37:28.306Z,45.78
2023-05-20T14:39:58.405Z,45.53
2023-05-20T14:42:28.545Z,46.09
2023-05-20T14:44:58.535Z,45.86
2023-05-20T14:47:33.871Z,45.28
2023-05-20T14:50:03.989Z,45.68
2023-05-20T14:52:34.061Z,45.22
2023-05-20T14:55:04.078Z,45.70
2023-05-20T14:57:34.160Z,45.40
2023-05-20T15:00:04.358Z,45.11
2023-05-20T15:02:37.006Z,45.23
2023-05-20T15:05:07.386Z,45.15
2023-05-20T15:07:37.307Z,45.51
2023-05-20T15:10:08.193Z,45.54
2023-05-20T15:12:38.242Z,45.21
2023-05-20T15:15:09.457Z,46.04
2023-05-20T15:17:42.029Z,45.41
2023-05-20T15:20:13.251Z,45.25
2023-05-20T15:22:45.950Z,45.73
2023-05-20T15:25:15.906Z,45.10
2023-05-20T15:27:46.103Z,45.07
2023-05-20T15:30:17.657Z,44.48
2023-05-20T15:32:50.420Z,43.55
2023-05-20T15:35:21.026Z,44.32
2023-05-20T15:37:50.977Z,44.02
2023-05-20T15:40:21.966Z,45.32
2023-05-20T15:42:51.936Z,44.74
2023-05-20T15:45:22.077Z,45.03
2023-05-20T15:47:55.036Z,45.19
2023-05-20T15:50:26.225Z,45.02
2023-05-20T15:52:59.649Z,44.83
2023-05-20T15:55:29.681Z,44.36
2023-05-20T15:57:59.650Z,44.75
2023-05-20T16:00:29.749Z,44.91
2023-05-20T16:03:02.538Z,44.44
2023-05-20T16:05:32.693Z,44.21
2023-05-20T16:08:02.985Z,44.98
2023-05-20T16:10:34.853Z,44.13
2023-05-20T16:13:08.138Z,43.59
2023-05-20T16:15:38.811Z,44.49
2023-05-20T16:18:11.530Z,43.63
2023-05-20T16:20:41.724Z,44.69
2023-05-20T16:23:11.772Z,45.26
2023-05-20T16:25:41.657Z,45.29
2023-05-20T16:28:11.665Z,44.78
2023-05-20T16:30:41.714Z,44.82
2023-05-20T16:33:21.506Z,44.65
2023-05-20T16:35:51.613Z,44.52
2023-05-20T16:38:21.996Z,45.07
2023-05-20T16:40:52.253Z,44.88
2023-05-20T16:43:22.176Z,44.96
2023-05-20T16:45:52.339Z,44.85
2023-05-20T16:48:26.929Z,45.48
2023-05-20T16:50:57.003Z,46.42
2023-05-20T16:53:27.388Z,45.83
2023-05-20T16:55:58.027Z,46.09
2023-05-20T16:58:28.246Z,45.55
2023-05-20T17:00:58.414Z,45.87
2023-05-20T17:03:31.241Z,46.10
2023-05-20T17:06:01.268Z,46.16
2023-05-20T17:08:31.930Z,45.86
2023-05-20T17:11:03.155Z,46.12
2023-05-20T17:13:33.236Z,46.07
2023-05-20T17:16:03.260Z,46.43
2023-05-20T17:18:35.882Z,46.54
2023-05-20T17:21:06.173Z,46.42
2023-05-20T17:23:36.162Z,46.58
2023-05-20T17:26:06.642Z,47.15
2023-05-20T17:28:36.601Z,47.63
2023-05-20T17:31:06.741Z,47.42
2023-05-20T17:33:39.949Z,47.14
2023-05-20T17:36:10.663Z,47.36
2023-05-20T17:38:40.756Z,47.19
2023-05-20T17:41:10.982Z,47.94
2023-05-20T17:43:40.964Z,47.48
2023-05-20T17:46:10.927Z,48.11
2023-05-20T17:48:45.079Z,47.96
2023-05-20T17:51:15.160Z,48.39
2023-05-20T17:53:45.130Z,48.36
2023-05-20T17:56:15.968Z,48.40
2023-05-20T17:58:48.381Z,48.88
2023-05-20T18:01:18.441Z,48.79
2023-05-20T18:03:51.304Z,49.28
2023-05-20T18:06:21.464Z,48.96
2023-05-20T18:08:51.853Z,48.76
2023-05-20T18:11:22.243Z,49.05
2023-05-20T18:13:52.467Z,49.07
2023-05-20T18:16:22.538Z,49.81
2023-05-20T18:18:55.220Z,50.05
2023-05-20T18:21:26.754Z,50.10
2023-05-20T18:23:56.715Z,50.24
2023-05-20T18:26:27.153Z,50.28
2023-05-20T18:28:57.137Z,49.71
2023-05-20T18:31:27.285Z,50.10
2023-05-20T18:33:59.868Z,50.42
2023-05-20T18:36:31.989Z,50.09
2023-05-20T18:39:01.912Z,50.08
2023-05-20T18:41:45.820Z,50.05
2023-05-20T18:44:17.786Z,50.24
2023-05-20T18:46:48.099Z,50.26
2023-05-20T18:49:20.694Z,50.76
2023-05-20T18:51:50.752Z,50.61
2023-05-20T18:54:20.688Z,50.90
2023-05-20T18:56:51.504Z,50.90
2023-05-20T18:59:23.293Z,51.39
2023-05-20T19:01:54.460Z,51.73
2023-05-20T19:04:27.449Z,52.35
2023-05-20T19:06:57.655Z,52.08
2023-05-20T19:09:27.591Z,52.31
2023-05-20T19:11:59.324Z,52.38
2023-05-20T19:14:29.424Z,52.97
2023-05-20T19:17:01.116Z,52.55
2023-05-20T19:19:33.871Z,53.62
2023-05-20T19:22:03.867Z,54.02
2023-05-20T19:24:35.482Z,53.61
2023-05-20T19:27:05.923Z,53.85
2023-05-20T19:29:36.040Z,54.41
2023-05-20T19:32:06.234Z,54.17
2023-05-20T19:34:38.827Z,54.39
2023-05-20T19:37:08.969Z,54.73
2023-05-20T19:39:39.266Z,54.48
2023-05-20T19:42:09.355Z,54.79
2023-05-20T19:44:39.329Z,54.73
2023-05-20T19:47:09.476Z,54.71
2023-05-20T19:49:42.174Z,55.03
2023-05-20T19:52:12.395Z,55.22
2023-05-20T19:54:43.249Z,55.07
2023-05-20T19:57:13.624Z,55.26
2023-05-20T19:59:43.777Z,55.33
2023-05-20T20:02:15.083Z,55.77
2023-05-20T20:04:48.115Z,56.19
2023-05-20T20:07:18.015Z,55.86
2023-05-20T20:09:49.294Z,56.06
2023-05-20T20:12:19.399Z,56.38
2023-05-20T20:14:49.467Z,56.80
2023-05-20T20:17:20.716Z,56.78
2023-05-20T20:19:55.965Z,56.90
2023-05-20T20:22:26.090Z,57.24
2023-05-20T20:24:56.104Z,57.19
2023-05-20T20:27:27.156Z,57.15
2023-05-20T20:29:57.357Z,57.44
2023-05-20T20:32:27.552Z,57.17
2023-05-20T20:35:00.918Z,57.91
2023-05-20T20:37:30.918Z,58.07
2023-05-20T20:40:03.916Z,58.10
2023-05-20T20:42:34.083Z,58.68
2023-05-20T20:45:04.556Z,58.89
2023-05-20T20:47:34.711Z,58.31
2023-05-20T20:50:08.160Z,59.02
2023-05-20T20:52:39.180Z,59.18
2023-05-20T20:55:10.187Z,59.08
2023-05-20T20:57:42.249Z,59.65
2023-05-20T21:00:14.466Z,59.82
2023-05-20T21:02:44.517Z,59.89
2023-05-20T21:05:17.752Z,60.11
2023-05-20T21:07:50.314Z,60.21
2023-05-20T21:10:20.905Z,60.57
2023-05-20T21:12:50.894Z,60.86
2023-05-20T21:15:20.896Z,61.03
2023-05-20T21:17:50.891Z,61.47
2023-05-20T21:20:23.679Z,61.74
2023-05-20T21:22:53.724Z,61.76
2023-05-20T21:25:23.695Z,61.96
2023-05-20T21:27:53.639Z,62.39
2023-05-20T21:30:24.803Z,62.38
2023-05-20T21:32:54.800Z,62.55
2023-05-20T21:35:27.392Z,62.70
2023-05-20T21:37:57.472Z,62.54
2023-05-20T21:40:27.408Z,62.55
2023-05-20T21:42:57.376Z,62.62
2023-05-20T21:45:27.292Z,62.96
2023-05-20T21:47:57.448Z,62.92
2023-05-20T21:50:30.222Z,63.47
2023-05-20T21:53:00.152Z,63.84
2023-05-20T21:55:30.106Z,64.00
2023-05-20T21:58:00.082Z,63.96
2023-05-20T22:00:30.199Z,64.09
2023-05-20T22:03:01.384Z,64.18
2023-05-20T22:05:34.869Z,64.51
2023-05-20T22:08:05.145Z,64.60
2023-05-20T22:10:37.885Z,65.52
2023-05-20T22:13:11.163Z,64.43
2023-05-20T22:15:41.152Z,64.38
2023-05-20T22:18:12.638Z,64.67
2023-05-20T22:20:45.259Z,64.83
2023-05-20T22:23:15.232Z,65.06
2023-05-20T22:25:45.312Z,65.58
2023-05-20T22:28:16.475Z,65.90
2023-05-20T22:30:46.718Z,65.60
2023-05-20T22:33:16.940Z,65.80
2023-05-20T22:35:49.530Z,66.03
2023-05-20T22:38:19.501Z,66.19
2023-05-20T22:40:50.733Z,66.30
2023-05-20T22:43:23.448Z,66.51
2023-05-20T22:45:53.522Z,66.50
2023-05-20T22:48:24.165Z,66.10
2023-05-20T22:50:57.033Z,66.61
2023-05-20T22:53:27.243Z,66.79
2023-05-20T22:55:57.186Z,66.59
2023-05-20T22:58:27.165Z,66.82
2023-05-20T23:00:57.287Z,66.93
2023-05-20T23:03:27.395Z,67.49
2023-05-20T23:05:59.901Z,68.19
2023-05-20T23:08:30.092Z,68.02
2023-05-20T23:11:00.283Z,68.10
2023-05-20T23:13:30.251Z,68.33
2023-05-20T23:16:01.648Z,68.47
2023-05-20T23:18:31.635Z,69.11
2023-05-20T23:21:04.599Z,69.79
2023-05-20T23:23:34.634Z,69.24
2023-05-20T23:26:05.369Z,69.54
2023-05-20T23:28:35.340Z,69.29
2023-05-20T23:31:05.445Z,69.72
2023-05-20T23:33:35.484Z,70.21
2023-05-20T23:36:09.550Z,70.35
2023-05-20T23:38:39.683Z,70.48
2023-05-20T23:41:09.708Z,70.50
2023-05-20T23:43:39.767Z,70.26
2023-05-20T23:46:10.022Z,70.64
2023-05-20T23:48:40.062Z,70.41
2023-05-20T23:51:13.770Z,70.65
2023-05-20T23:53:43.901Z,70.63
2023-05-20T23:56:13.815Z,70.67
2023-05-20T23:58:43.836Z,70.75
